Time;durP1;ratioP1;P1;durP2;ratioP2;P2;SDS_P1;SDS_P2;PMS_P1;PMS_P2;Temp;Humidity;BMP_temperature;BMP_pressure;BME280_temperature;BME280_humidity;BME280_pressure;Samples;Min_cycle;Max_cycle;Signal;HPM_P1;HPM_P2
2022/07/01 00:01:42;;;;;;;16.52;6.18;;;16.70;99.90;;;15.61;100.00;97415.81;5033130;28;20482;-77
2022/07/01 00:04:09;;;;;;;14.55;5.07;;;16.50;99.90;;;15.56;100.00;97419.34;5053314;22;20875;-73
2022/07/01 00:06:35;;;;;;;12.67;4.97;;;16.40;99.90;;;15.49;100.00;97418.81;5073311;28;20819;-71
2022/07/01 00:09:01;;;;;;;9.30;4.45;;;16.30;99.90;;;15.26;100.00;97412.34;5072531;28;20495;-71
2022/07/01 00:11:27;;;;;;;21.20;5.25;;;16.20;99.90;;;15.30;100.00;97405.41;5072960;28;20480;-72
2022/07/01 00:13:53;;;;;;;15.67;4.93;;;16.20;99.90;;;15.30;100.00;97421.41;5073066;28;20909;-72
2022/07/01 00:16:19;;;;;;;34.38;6.47;;;16.20;99.90;;;15.20;100.00;97413.47;5072991;28;20896;-72
2022/07/01 00:18:46;;;;;;;66.47;9.60;;;16.10;99.90;;;15.09;100.00;97414.66;5072482;28;20403;-72
2022/07/01 00:21:12;;;;;;;78.22;9.60;;;16.00;99.90;;;14.95;100.00;97416.34;5072608;28;20404;-72
2022/07/01 00:23:38;;;;;;;41.40;7.90;;;16.00;99.90;;;15.04;100.00;97428.00;5072799;28;20432;-72
2022/07/01 00:26:04;;;;;;;60.17;8.63;;;15.90;99.90;;;14.93;100.00;97434.50;5072702;28;20423;-72
2022/07/01 00:28:30;;;;;;;20.00;4.93;;;15.90;99.90;;;14.84;100.00;97436.94;5072295;28;20412;-72
2022/07/01 00:30:55;;;;;;;31.45;6.53;;;15.80;99.90;;;14.93;100.00;97437.94;5072389;28;20415;-72
2022/07/01 00:33:21;;;;;;;76.93;10.40;;;15.80;99.90;;;14.92;100.00;97439.03;5072750;28;20406;-72
2022/07/01 00:35:49;;;;;;;50.43;7.40;;;15.80;99.90;;;14.70;100.00;97433.31;5072533;28;20422;-72
2022/07/01 00:38:14;;;;;;;50.00;6.93;;;15.70;99.90;;;14.68;100.00;97428.25;5071893;28;21051;-72
2022/07/01 00:40:40;;;;;;;10.75;4.25;;;15.70;99.90;;;14.67;100.00;97418.66;5072262;28;20406;-72
2022/07/01 00:43:06;;;;;;;10.38;4.28;;;15.60;99.90;;;14.78;100.00;97416.72;5072595;28;20403;-72
2022/07/01 00:45:32;;;;;;;11.67;4.10;;;15.70;99.90;;;14.76;100.00;97418.88;5072292;28;20529;-72
2022/07/01 00:47:59;;;;;;;14.45;4.22;;;15.70;99.90;;;14.92;100.00;97408.91;5072442;28;20403;-72
2022/07/01 00:50:24;;;;;;;11.63;4.43;;;15.80;99.90;;;14.92;100.00;97407.03;5071477;28;20404;-72
2022/07/01 00:52:52;;;;;;;58.07;8.47;;;15.90;99.90;;;15.04;100.00;97412.78;5072398;28;20415;-72
2022/07/01 00:55:18;;;;;;;20.10;4.85;;;15.90;99.90;;;15.19;100.00;97408.41;5072104;28;20974;-72
2022/07/01 00:57:44;;;;;;;11.15;4.28;;;16.10;99.90;;;15.04;100.00;97404.00;5072317;28;20662;-72
2022/07/01 01:00:15;;;;;;;10.32;4.05;;;15.90;99.90;;;14.82;100.00;97398.31;5071465;28;20406;-72
2022/07/01 01:02:41;;;;;;;9.63;3.90;;;15.80;99.90;;;14.81;100.00;97399.41;5071289;28;20400;-72
2022/07/01 01:05:08;;;;;;;21.95;5.00;;;15.70;99.90;;;14.81;100.00;97396.75;5071819;28;20445;-71
2022/07/01 01:07:35;;;;;;;14.88;4.85;;;15.70;99.90;;;14.95;100.00;97403.03;5072121;28;20408;-72
2022/07/01 01:10:04;;;;;;;8.45;3.92;;;15.80;99.90;;;14.82;100.00;97401.78;5071380;28;20396;-72
2022/07/01 01:12:30;;;;;;;18.75;4.80;;;15.80;99.90;;;14.82;100.00;97395.63;5071945;28;20419;-72
2022/07/01 01:14:57;;;;;;;14.27;4.97;;;15.80;99.90;;;14.88;100.00;97386.56;5071845;28;20893;-72
2022/07/01 01:17:23;;;;;;;13.60;4.40;;;15.80;99.90;;;14.87;100.00;97384.97;5053904;28;20437;-72
2022/07/01 01:19:50;;;;;;;18.55;5.65;;;15.80;99.90;;;14.98;100.00;97392.59;5071312;28;20435;-72
2022/07/01 01:22:18;;;;;;;12.18;4.57;;;15.80;99.90;;;14.77;100.00;97401.00;5071766;28;20415;-73
2022/07/01 01:24:49;;;;;;;41.00;9.07;;;15.70;99.90;;;14.70;100.00;97388.81;5071493;28;20412;-72
2022/07/01 01:27:16;;;;;;;16.67;5.85;;;15.50;99.90;;;14.55;100.00;97388.09;5071679;28;20452;-73
2022/07/01 01:29:43;;;;;;;27.85;8.38;;;15.50;99.90;;;14.57;100.00;97388.63;5070842;28;20403;-73
2022/07/01 01:32:10;;;;;;;16.70;6.78;;;15.40;99.90;;;14.60;100.00;97394.19;5071395;28;20864;-73
2022/07/01 01:34:38;;;;;;;52.05;11.68;;;15.40;99.90;;;14.70;100.00;97380.81;5069992;28;20864;-72
2022/07/01 01:37:05;;;;;;;26.65;8.43;;;15.50;99.90;;;14.61;100.00;97381.66;5071543;28;20400;-73
2022/07/01 01:39:32;;;;;;;24.60;7.97;;;15.50;99.90;;;14.61;100.00;97381.66;5070672;28;20396;-72
2022/07/01 01:41:58;;;;;;;17.02;6.88;;;15.40;99.90;;;14.55;100.00;97380.91;5071278;28;20777;-72
2022/07/01 01:44:24;;;;;;;15.88;6.95;;;15.40;99.90;;;14.53;100.00;97376.94;5071272;28;20404;-73
2022/07/01 01:46:50;;;;;;;29.10;8.85;;;15.40;99.90;;;14.57;100.00;97362.78;5071194;28;20414;-73
2022/07/01 01:49:17;;;;;;;22.37;8.03;;;15.40;99.90;;;14.44;100.00;97371.38;5070518;28;20443;-73
2022/07/01 01:51:43;;;;;;;26.60;8.20;;;15.30;99.90;;;14.49;100.00;97365.25;5071036;28;20872;-72
2022/07/01 01:54:09;;;;;;;17.23;7.13;;;15.30;99.90;;;14.42;100.00;97352.25;5071203;28;20430;-72
2022/07/01 01:56:36;;;;;;;48.97;10.85;;;15.30;99.90;;;14.40;100.00;97343.72;5071469;28;20392;-72
2022/07/01 01:59:04;;;;;;;29.85;8.60;;;15.20;99.90;;;14.22;100.00;97328.34;5070390;28;20542;-72
2022/07/01 02:01:30;;;;;;;20.83;7.80;;;15.20;99.90;;;14.44;100.00;97331.44;5070782;28;20796;-73
2022/07/01 02:03:58;;;;;;;18.60;7.80;;;15.20;99.90;;;14.42;100.00;97316.81;5070638;28;20718;-73
2022/07/01 02:06:25;;;;;;;29.25;9.10;;;15.20;99.90;;;14.23;100.00;97313.97;5070792;28;20442;-72
2022/07/01 02:08:51;;;;;;;21.13;8.07;;;15.10;99.90;;;14.27;100.00;97307.84;5070271;28;20445;-73
2022/07/01 02:11:17;;;;;;;25.73;8.65;;;15.10;99.90;;;14.32;100.00;97307.00;5070599;28;20392;-73
2022/07/01 02:13:45;;;;;;;16.48;8.18;;;15.10;99.90;;;14.04;100.00;97297.84;5070622;28;20406;-72
2022/07/01 02:16:11;;;;;;;18.55;8.25;;;15.00;99.90;;;14.18;100.00;97300.69;5070691;28;20403;-72
2022/07/01 02:18:37;;;;;;;29.98;10.15;;;15.00;99.90;;;14.08;100.00;97298.09;5070037;28;20890;-72
2022/07/01 02:21:03;;;;;;;22.80;8.88;;;15.00;99.90;;;14.01;100.00;97300.25;5070500;28;20490;-73
2022/07/01 02:23:29;;;;;;;24.45;9.57;;;14.90;99.90;;;14.08;100.00;97292.75;5070741;28;20412;-72
2022/07/01 02:25:55;;;;;;;34.20;10.07;;;14.90;99.90;;;14.02;100.00;97294.66;5070601;28;20419;-72
2022/07/01 02:28:21;;;;;;;17.75;8.32;;;14.90;99.90;;;14.06;100.00;97287.72;5070121;28;20435;-72
2022/07/01 02:30:48;;;;;;;24.73;8.93;;;14.90;99.90;;;14.02;100.00;97296.53;5070215;28;20436;-73
2022/07/01 02:33:14;;;;;;;25.50;9.10;;;14.90;99.90;;;14.01;100.00;97306.38;5070407;28;20848;-73
2022/07/01 02:35:41;;;;;;;22.05;8.73;;;14.80;99.90;;;14.00;100.00;97317.28;5070183;28;20470;-73
2022/07/01 02:38:08;;;;;;;22.58;9.63;;;14.70;99.90;;;13.82;100.00;97316.06;5069811;28;20897;-72
2022/07/01 02:40:37;;;;;;;43.30;11.73;;;14.70;99.90;;;13.90;100.00;97315.50;5069818;28;20762;-72
2022/07/01 02:43:03;;;;;;;20.88;9.35;;;14.70;99.90;;;13.84;100.00;97324.53;5070317;28;20881;-72
2022/07/01 02:45:29;;;;;;;22.70;9.48;;;14.70;99.90;;;13.86;100.00;97320.56;5052147;28;20460;-72
2022/07/01 02:47:56;;;;;;;19.58;9.10;;;14.70;99.90;;;13.85;100.00;97318.97;5070194;28;20765;-73
2022/07/01 02:50:22;;;;;;;40.03;13.15;;;14.70;99.90;;;13.76;100.00;97320.59;5069258;28;20789;-72
2022/07/01 02:52:48;;;;;;;42.60;12.83;;;14.70;99.90;;;13.80;100.00;97319.00;5052257;28;20506;-73
2022/07/01 02:55:14;;;;;;;35.22;13.98;;;14.70;99.90;;;13.66;100.00;97323.31;5069830;28;20396;-73
2022/07/01 02:57:42;;;;;;;44.45;14.52;;;14.50;99.90;;;13.63;100.00;97320.38;5070000;28;20415;-73
2022/07/01 03:00:11;;;;;;;32.25;12.70;;;14.50;99.90;;;13.62;100.00;97313.47;5069129;28;20513;-73
2022/07/01 03:02:38;;;;;;;49.38;14.85;;;14.50;99.90;;;13.72;100.00;97326.75;5069937;28;20395;-73
2022/07/01 03:05:07;;;;;;;41.30;14.38;;;14.50;99.90;;;13.67;100.00;97319.59;5069587;28;20486;-72
2022/07/01 03:07:35;;;;;;;48.50;15.40;;;14.50;99.90;;;13.64;100.00;97319.31;5069980;28;20486;-73
2022/07/01 03:10:01;;;;;;;46.35;14.35;;;14.50;99.90;;;13.68;100.00;97333.69;5067946;28;20408;-73
2022/07/01 03:12:32;;;;;;;36.22;13.10;;;14.50;99.90;;;13.65;100.00;97337.69;5069744;28;20415;-73
2022/07/01 03:15:00;;;;;;;33.85;11.65;;;14.50;99.90;;;13.48;100.00;97334.53;5069637;28;20403;-73
2022/07/01 03:17:33;;;;;;;42.03;13.40;;;14.30;99.90;;;13.63;100.00;97349.63;5069715;28;20393;-72
2022/07/01 03:20:01;;;;;;;35.92;12.27;;;14.40;99.90;;;13.49;100.00;97354.75;5069129;28;20392;-72
2022/07/01 03:22:31;;;;;;;35.35;12.13;;;14.40;99.90;;;13.62;100.00;97348.03;5069528;28;20481;-72
2022/07/01 03:24:58;;;;;;;24.73;10.77;;;14.50;99.90;;;13.57;100.00;97352.31;5068956;28;20920;-72
2022/07/01 03:27:25;;;;;;;28.40;10.80;;;14.40;99.90;;;13.62;100.00;97350.72;5069916;28;20879;-72
2022/07/01 03:29:52;;;;;;;36.13;12.30;;;14.40;99.90;;;13.64;100.00;97351.25;5069096;28;20864;-72
2022/07/01 03:32:18;;;;;;;32.30;11.73;;;14.50;99.90;;;13.54;100.00;97362.69;5069546;28;20718;-73
2022/07/01 03:34:47;;;;;;;20.17;9.50;;;14.40;99.90;;;13.59;100.00;97377.88;5069755;28;20457;-72
2022/07/01 03:37:14;;;;;;;38.40;12.40;;;14.40;99.90;;;13.55;100.00;97389.03;5069561;28;20396;-72
2022/07/01 03:39:42;;;;;;;35.95;11.73;;;14.40;99.90;;;13.45;100.00;97394.38;5069119;28;20406;-74
2022/07/01 03:42:09;;;;;;;25.95;10.80;;;14.30;99.90;;;13.44;100.00;97405.28;5069424;28;20392;-72
2022/07/01 03:44:36;;;;;;;27.52;9.80;;;14.40;99.90;;;13.53;100.00;97406.34;5069500;28;20396;-72
2022/07/01 03:47:05;;;;;;;28.58;10.40;;;14.40;99.90;;;13.50;100.00;97410.31;5069212;28;20400;-73
2022/07/01 03:49:32;;;;;;;39.17;11.82;;;14.40;99.90;;;13.54;100.00;97408.69;5046614;28;20813;-72
2022/07/01 03:51:57;;;;;;;25.33;9.90;;;14.40;99.90;;;13.55;100.00;97417.47;5068661;28;20395;-73
2022/07/01 03:54:29;;;;;;;25.60;9.20;;;14.40;99.90;;;13.59;100.00;97418.56;5069090;28;20765;-73
2022/07/01 03:56:57;;;;;;;33.20;10.95;;;14.40;99.90;;;13.55;100.00;97423.59;5069299;28;20618;-73
2022/07/01 03:59:23;;;;;;;30.02;10.70;;;14.50;99.90;;;13.65;100.00;97422.78;5068591;28;20400;-73
2022/07/01 04:01:49;;;;;;;27.02;9.38;;;14.50;99.90;;;13.64;100.00;97434.50;5069097;28;20430;-73
2022/07/01 04:04:15;;;;;;;28.25;10.50;;;14.50;99.90;;;13.63;100.00;97446.19;5069021;28;20549;-73
2022/07/01 04:06:42;;;;;;;30.90;9.88;;;14.50;99.90;;;13.53;100.00;97462.19;5069189;28;20412;-73
2022/07/01 04:09:08;;;;;;;24.80;9.07;;;14.40;99.90;;;13.48;100.00;97472.81;5065197;28;20392;-73
2022/07/01 04:11:34;;;;;;;15.80;7.32;;;14.30;99.90;;;13.34;100.00;97469.91;5064908;28;20396;-73
2022/07/01 04:14:01;;;;;;;26.08;9.02;;;14.20;99.90;;;13.27;100.00;97484.50;5049100;28;20428;-74
2022/07/01 04:16:27;;;;;;;18.10;7.65;;;14.10;99.90;;;13.21;100.00;97496.22;5048998;28;20401;-75
2022/07/01 04:18:53;;;;;;;16.35;7.25;;;14.10;99.90;;;13.17;100.00;97501.25;5048142;28;20401;-74
2022/07/01 04:24:06;;;;;;;16.45;7.20;;;14.10;99.90;;;13.18;100.00;97508.97;5063086;28;20970;-74
2022/07/01 04:26:31;;;;;;;18.42;7.75;;;14.10;99.90;;;13.17;100.00;97510.03;5067327;28;21002;-73
2022/07/01 04:28:57;;;;;;;23.20;8.73;;;14.00;99.90;;;13.14;100.00;97526.50;5068322;28;20396;-73
2022/07/01 04:31:25;;;;;;;15.88;7.32;;;14.00;99.90;;;13.09;100.00;97525.66;5068794;28;20399;-75
2022/07/01 04:33:51;;;;;;;14.43;6.95;;;14.00;99.90;;;13.12;100.00;97522.47;5068638;28;20885;-74
2022/07/01 04:36:17;;;;;;;16.13;7.43;;;14.00;99.90;;;13.14;100.00;97515.09;5062162;28;20446;-72
2022/07/01 04:38:43;;;;;;;21.50;7.60;;;14.00;99.90;;;13.20;100.00;97508.69;5071520;28;20679;-72
2022/07/01 04:43:54;;;;;;;16.65;7.32;;;14.20;99.90;;;13.37;100.00;97500.47;5067294;28;20477;-74
2022/07/01 04:46:20;;;;;;;19.10;7.63;;;14.20;99.90;;;13.39;100.00;97493.81;5070221;28;20506;-74
2022/07/01 04:48:47;;;;;;;11.48;6.18;;;14.30;99.90;;;13.41;100.00;97494.34;5071834;28;20396;-74
2022/07/01 04:51:13;;;;;;;16.77;6.80;;;14.30;99.90;;;13.34;100.00;97498.34;5056534;28;20438;-74
2022/07/01 04:53:39;;;;;;;33.80;8.57;;;14.20;99.90;;;13.33;100.00;97499.41;5071026;28;20510;-73
2022/07/01 04:56:05;;;;;;;17.20;7.15;;;14.20;99.90;;;13.32;100.00;97513.75;5069124;28;21027;-73
2022/07/01 04:58:31;;;;;;;20.75;6.78;;;14.20;99.90;;;13.28;100.00;97507.38;5060186;28;20416;-74
2022/07/01 05:00:57;;;;;;;15.40;6.15;;;14.20;99.90;;;13.26;100.00;97512.16;5066208;28;20977;-73
2022/07/01 05:03:23;;;;;;;21.83;5.85;;;14.20;99.90;;;13.27;100.00;97524.38;5067702;28;20438;-73
2022/07/01 05:05:50;;;;;;;0.63;0.63;;;14.20;99.90;;;13.39;100.00;97525.72;5070855;28;21033;-74
2022/07/01 05:08:16;;;;;;;0.75;0.75;;;14.30;99.90;;;13.40;100.00;97518.53;5067847;28;20421;-74
2022/07/01 05:10:42;;;;;;;0.75;0.75;;;14.30;99.90;;;13.41;100.00;97517.47;5063925;28;20421;-74
2022/07/01 05:13:08;;;;;;;0.60;0.60;;;14.30;99.90;;;13.38;100.00;97524.13;5065489;28;20780;-74
2022/07/01 05:15:34;;;;;;;0.60;0.60;;;14.30;99.90;;;13.34;100.00;97532.91;5068292;28;20438;-74
2022/07/01 05:23:30;;;;;;;0.60;0.60;;;14.10;99.90;;;13.25;100.00;97532.63;5070946;28;20504;-73
2022/07/01 05:25:56;;;;;;;0.70;0.70;;;14.20;99.90;;;13.24;100.00;97520.38;5071270;28;20415;-74
2022/07/01 05:28:22;;;;;;;0.70;0.70;;;14.20;99.90;;;13.27;100.00;97519.06;5070879;28;20414;-73
2022/07/01 05:30:48;;;;;;;0.60;0.60;;;14.20;99.90;;;13.33;100.00;97518.81;5071378;28;20400;-74
2022/07/01 05:33:15;;;;;;;1.00;0.95;;;14.20;99.90;;;13.38;100.00;97516.16;5070881;28;20475;-74
2022/07/01 05:35:41;;;;;;;0.70;0.70;;;14.30;99.90;;;13.46;100.00;97512.97;5071105;28;20388;-74
2022/07/01 05:38:07;;;;;;;1.75;1.00;;;14.30;99.90;;;13.41;100.00;97510.31;5071029;28;20416;-73
2022/07/01 05:40:34;;;;;;;1.10;1.02;;;14.30;99.90;;;13.46;100.00;97515.63;5070718;28;20383;-73
2022/07/01 05:43:00;;;;;;;1.60;0.80;;;14.40;99.90;;;13.47;100.00;97516.41;5070889;28;20402;-74
2022/07/01 05:45:26;;;;;;;0.60;0.60;;;14.40;99.90;;;13.52;100.00;97530.53;5070815;28;20412;-74
2022/07/01 05:47:52;;;;;;;0.70;0.70;;;14.40;99.90;;;13.44;100.00;97522.28;5070670;28;20438;-73
2022/07/01 05:50:18;;;;;;;0.70;0.70;;;14.40;99.90;;;13.43;100.00;97532.13;5070390;28;20421;-74
2022/07/01 05:52:44;;;;;;;0.60;0.60;;;14.30;99.90;;;13.51;100.00;97536.91;5071326;28;20746;-74
2022/07/01 05:55:10;;;;;;;1.55;0.93;;;14.40;99.90;;;13.56;100.00;97530.78;5069909;28;20403;-75
2022/07/01 05:57:37;;;;;;;26.95;8.50;;;14.40;99.90;;;13.48;100.00;97529.44;5070980;28;20402;-76
2022/07/01 06:00:04;;;;;;;34.17;9.90;;;14.40;99.90;;;13.42;100.00;97530.53;5070393;28;20474;-75
2022/07/01 06:02:30;;;;;;;36.80;10.57;;;14.30;99.90;;;13.53;100.00;97529.44;5070728;28;20406;-75
2022/07/01 06:04:59;;;;;;;47.55;12.15;;;14.40;99.90;;;13.55;100.00;97523.88;5083934;22;20424;-80
2022/07/01 06:07:25;;;;;;;43.78;11.93;;;14.40;99.90;;;13.55;100.00;97532.66;5070631;28;20482;-79
2022/07/01 06:09:51;;;;;;;53.53;12.75;;;14.50;99.90;;;13.55;100.00;97531.84;5075081;28;20435;-80
2022/07/01 06:12:16;;;;;;;54.05;12.40;;;14.50;99.90;;;13.62;100.00;97543.00;5070571;28;20753;-80
2022/07/01 06:14:44;;;;;;;0.60;0.60;;;14.50;99.90;;;13.64;100.00;97540.91;5064344;28;20409;-80
2022/07/01 06:17:10;;;;;;;2.03;1.20;;;14.50;99.90;;;13.70;100.00;97536.38;5056094;28;20445;-80
2022/07/01 06:19:38;;;;;;;2.60;1.20;;;14.60;99.90;;;13.64;100.00;97551.53;5064541;28;20408;-81
2022/07/01 06:22:05;;;;;;;0.88;0.88;;;14.60;99.90;;;13.66;100.00;97551.28;5063221;28;20758;-80
2022/07/01 06:24:31;;;;;;;0.70;0.70;;;14.50;99.90;;;13.65;100.00;97561.13;5060959;28;20883;-79
2022/07/01 06:26:57;;;;;;;0.70;0.70;;;14.60;99.90;;;13.73;100.00;97565.91;5056215;28;20895;-79
2022/07/01 06:29:23;;;;;;;0.60;0.60;;;14.50;99.90;;;13.61;100.00;97565.34;5051646;28;20405;-80
2022/07/01 06:31:50;;;;;;;0.70;0.70;;;14.50;99.90;;;13.60;100.00;97555.81;5050000;28;20405;-79
2022/07/01 06:34:16;;;;;;;2.80;0.90;;;14.50;99.90;;;13.71;100.00;97561.91;5046009;28;20440;-80
2022/07/01 06:36:42;;;;;;;0.80;0.77;;;14.50;99.90;;;13.70;100.00;97568.28;5044158;28;21001;-81
2022/07/01 06:39:08;;;;;;;0.50;0.50;;;14.60;99.90;;;13.77;100.00;97574.94;5038776;28;20413;-81
2022/07/01 06:41:33;;;;;;;0.50;0.50;;;14.60;99.90;;;13.81;100.00;97576.00;5043903;28;20921;-81
2022/07/01 06:44:02;;;;;;;0.70;0.70;;;14.60;99.90;;;13.78;100.00;97581.06;5040693;28;20509;-79
2022/07/01 06:46:29;;;;;;;0.60;0.60;;;14.60;99.90;;;13.78;100.00;97578.41;5028908;28;20427;-80
2022/07/01 06:48:57;;;;;;;0.70;0.70;;;14.60;99.90;;;13.81;100.00;97576.00;5035492;28;20440;-81
2022/07/01 06:51:24;;;;;;;0.63;0.63;;;14.70;99.90;;;13.73;100.00;97571.22;5049827;28;20949;-80
2022/07/01 06:53:50;;;;;;;0.60;0.60;;;14.60;99.90;;;13.75;100.00;97574.44;5049905;28;20410;-75
2022/07/01 06:56:17;;;;;;;0.60;0.60;;;14.60;99.90;;;13.66;100.00;97586.66;5046247;28;20918;-80
2022/07/01 06:58:43;;;;;;;0.70;0.70;;;14.60;99.90;;;13.72;100.00;97584.78;5056787;28;20461;-79
2022/07/01 07:01:09;;;;;;;0.93;0.90;;;14.60;99.90;;;13.76;100.00;97586.63;5055127;28;20451;-82
2022/07/01 07:03:35;;;;;;;0.60;0.60;;;14.60;99.90;;;13.83;100.00;97584.50;5049598;28;20401;-80
2022/07/01 07:06:04;;;;;;;0.50;0.50;;;14.60;99.90;;;13.79;100.00;97591.44;5059940;28;20762;-79
2022/07/01 07:08:31;;;;;;;0.60;0.60;;;14.60;99.90;;;13.84;100.00;97598.59;5056240;28;20409;-80
2022/07/01 07:10:58;;;;;;;0.55;0.55;;;14.70;99.90;;;13.85;100.00;97605.53;5049543;28;20482;-80
2022/07/01 07:13:24;;;;;;;0.90;0.90;;;14.70;99.90;;;13.86;100.00;97615.91;5049664;28;20401;-82
2022/07/01 07:15:50;;;;;;;0.50;0.50;;;14.70;99.90;;;13.87;100.00;97617.53;5045339;28;20446;-81
2022/07/01 07:18:17;;;;;;;0.60;0.60;;;14.70;99.90;;;13.84;100.00;97626.03;5043912;28;20417;-79
2022/07/01 07:20:43;;;;;;;0.60;0.60;;;14.70;99.90;;;13.87;100.00;97614.84;5044803;28;20935;-79
2022/07/01 07:23:10;;;;;;;0.55;0.55;;;14.70;99.90;;;13.83;100.00;97608.44;5029736;28;20978;-80
2022/07/01 07:25:36;;;;;;;0.50;0.50;;;14.70;99.90;;;13.85;100.00;97610.84;5032968;28;20407;-81
2022/07/01 07:28:03;;;;;;;0.60;0.60;;;14.70;99.90;;;13.90;100.00;97618.84;5044354;28;20421;-81
2022/07/01 07:30:29;;;;;;;0.63;0.63;;;14.70;99.90;;;13.86;100.00;97623.91;5033994;28;20413;-79
2022/07/01 07:32:54;;;;;;;0.50;0.50;;;14.70;99.90;;;13.81;100.00;97625.75;5047633;28;20462;-78
2022/07/01 07:35:20;;;;;;;0.67;0.67;;;14.70;99.90;;;13.82;100.00;97619.38;5037149;28;20506;-80
2022/07/01 07:37:46;;;;;;;39.65;10.50;;;14.70;99.90;;;13.74;100.00;97617.25;5041229;28;20414;-81
2022/07/01 07:40:18;;;;;;;37.88;10.20;;;14.60;99.90;;;13.70;100.00;97627.59;5031742;28;20409;-77
2022/07/01 07:42:45;;;;;;;32.78;8.90;;;14.60;99.90;;;13.74;100.00;97626.03;5027312;28;20419;-77
2022/07/01 07:45:13;;;;;;;0.75;0.75;;;14.60;99.90;;;13.74;100.00;97626.03;5029961;28;20395;-78
2022/07/01 07:47:43;;;;;;;0.82;0.68;;;14.60;99.90;;;13.63;100.00;97613.78;5048292;28;20437;-78
2022/07/01 07:50:09;;;;;;;0.63;0.63;;;14.50;99.90;;;13.58;100.00;97611.13;5047146;28;20417;-75
2022/07/01 07:52:35;;;;;;;0.50;0.50;;;14.50;99.90;;;13.67;100.00;97614.84;5030873;28;20403;-81
2022/07/01 07:55:02;;;;;;;0.50;0.50;;;14.50;99.90;;;13.67;100.00;97614.06;5013889;28;20417;-79
2022/07/01 07:57:30;;;;;;;0.50;0.50;;;14.50;99.90;;;13.66;100.00;97612.44;5038871;28;20465;-77
2022/07/01 07:59:56;;;;;;;0.65;0.65;;;14.50;99.90;;;13.67;100.00;97608.75;5028781;28;20987;-78
2022/07/01 08:02:22;;;;;;;0.50;0.50;;;14.50;99.90;;;13.75;100.00;97617.00;5041408;28;20421;-77
2022/07/01 08:04:48;;;;;;;0.70;0.70;;;14.60;99.90;;;13.83;100.00;97616.44;5044300;28;20416;-80
2022/07/01 08:07:14;;;;;;;0.50;0.50;;;14.60;99.90;;;13.92;100.00;97624.69;5026761;28;20512;-78
2022/07/01 08:09:47;;;;;;;0.60;0.60;;;14.70;99.90;;;13.91;100.00;97633.72;5046174;28;20417;-79
2022/07/01 08:12:13;;;;;;;0.50;0.50;;;14.70;99.90;;;13.85;100.00;97634.81;5037213;28;20414;-79
2022/07/01 08:14:41;;;;;;;0.80;0.80;;;14.70;99.90;;;13.76;100.00;97642.50;5033396;28;20414;-79
2022/07/01 08:17:07;;;;;;;0.50;0.50;;;14.60;99.90;;;13.80;100.00;97635.63;5033026;28;20411;-80
2022/07/01 08:19:33;;;;;;;3.65;1.65;;;14.60;99.90;;;13.81;100.00;97636.41;5045150;28;20899;-81
2022/07/01 08:21:59;;;;;;;42.23;10.50;;;14.60;99.90;;;13.81;100.00;97652.38;5036629;28;20432;-76
2022/07/01 08:24:25;;;;;;;27.35;9.00;;;14.60;99.90;;;13.78;100.00;97655.56;5058122;28;20450;-78
2022/07/01 08:26:50;;;;;;;32.92;10.00;;;14.60;99.90;;;13.72;100.00;97649.44;5061595;28;20833;-77
2022/07/01 08:29:17;;;;;;;29.33;9.73;;;14.60;99.90;;;13.76;100.00;97658.47;5061281;28;20412;-79
2022/07/01 08:31:44;;;;;;;28.63;10.07;;;14.60;99.90;;;13.82;100.00;97652.13;5041659;28;20543;-80
2022/07/01 08:34:10;;;;;;;27.52;10.02;;;14.70;99.90;;;13.89;100.00;97652.66;5060487;28;20441;-81
2022/07/01 08:36:36;;;;;;;35.78;11.68;;;14.70;99.90;;;13.95;100.00;97651.59;5062134;28;20500;-79
2022/07/01 08:39:02;;;;;;;36.72;11.35;;;14.80;99.90;;;14.00;100.00;97664.09;5055643;28;20417;-81
2022/07/01 08:41:28;;;;;;;28.38;10.15;;;14.80;99.90;;;13.95;100.00;97672.06;5052584;28;20937;-80
2022/07/01 08:43:54;;;;;;;33.38;10.80;;;14.80;99.90;;;13.95;100.00;97669.41;5053097;28;20410;-77
2022/07/01 08:46:22;;;;;;;34.10;11.33;;;14.80;99.90;;;13.94;100.00;97675.78;5056631;28;20779;-79
2022/07/01 08:48:50;;;;;;;35.47;11.38;;;14.80;99.90;;;13.92;100.00;97672.59;5053458;28;20406;-80
2022/07/01 08:51:15;;;;;;;42.30;11.10;;;14.80;99.90;;;14.01;100.00;97686.97;5060567;28;20929;-78
2022/07/01 08:53:41;;;;;;;32.38;9.63;;;14.80;99.90;;;14.01;100.00;97683.50;5058751;28;20532;-76
2022/07/01 08:58:52;;;;;;;43.80;9.90;;;14.80;99.90;;;14.07;100.00;97680.59;5055764;28;20415;-77
2022/07/01 09:01:21;;;;;;;38.95;9.50;;;14.90;99.90;;;14.04;100.00;97686.47;5041561;28;20797;-79
2022/07/01 09:03:52;;;;;;;47.33;10.27;;;14.90;99.90;;;14.05;100.00;97684.59;5051669;28;20430;-81
2022/07/01 09:06:20;;;;;;;41.78;10.15;;;14.90;99.90;;;13.99;100.00;97678.44;5053449;28;20411;-78
2022/07/01 09:08:46;;;;;;;39.50;9.80;;;14.80;99.90;;;13.94;100.00;97676.59;5053416;28;20413;-82
2022/07/01 09:11:14;;;;;;;41.85;9.85;;;14.80;99.90;;;13.87;100.00;97684.03;5052825;28;20509;-79
2022/07/01 09:13:41;;;;;;;44.17;9.40;;;14.80;99.90;;;13.89;100.00;97683.78;5052987;28;20495;-77
2022/07/01 09:16:13;;;;;;;21.17;3.78;;;14.70;99.90;;;13.85;100.00;97688.03;5050803;28;20436;-79
2022/07/01 09:18:39;;;;;;;0.60;0.60;;;14.70;99.90;;;13.78;100.00;97671.53;5057074;28;20418;-79
2022/07/01 09:21:13;;;;;;;0.60;0.60;;;14.60;99.90;;;13.76;100.00;97657.66;5056919;28;20460;-79
2022/07/01 09:23:39;;;;;;;0.50;0.50;;;14.60;99.90;;;13.72;100.00;97656.63;5059433;28;20418;-78
2022/07/01 09:26:05;;;;;;;0.60;0.60;;;14.50;99.90;;;13.72;100.00;97677.91;5062642;28;20395;-79
2022/07/01 09:28:31;;;;;;;0.80;0.80;;;14.50;99.90;;;13.67;100.00;97693.88;5040397;28;20465;-77
2022/07/01 09:30:58;;;;;;;0.60;0.60;;;14.50;99.90;;;13.60;100.00;97688.00;5056954;28;20986;-79
2022/07/01 09:33:26;;;;;;;0.50;0.50;;;14.40;99.90;;;13.59;100.00;97689.06;5050386;28;20564;-78
2022/07/01 09:35:54;;;;;;;0.52;0.52;;;14.40;99.90;;;13.62;100.00;97696.50;5031083;28;21017;-79
2022/07/01 09:38:23;;;;;;;0.55;0.55;;;14.40;99.90;;;13.68;100.00;97704.22;5041880;28;20408;-78
2022/07/01 09:40:55;;;;;;;12.27;3.60;;;14.50;99.90;;;13.66;100.00;97701.03;5029275;28;20399;-78
2022/07/01 09:43:24;;;;;;;33.65;9.70;;;14.50;99.90;;;13.63;100.00;97692.78;5029599;28;20399;-80
2022/07/01 09:45:57;;;;;;;30.67;9.80;;;14.60;99.90;;;13.66;100.00;97681.63;5029307;28;20396;-79
2022/07/01 09:48:34;;;;;;;29.92;9.55;;;14.50;99.90;;;13.70;100.00;97683.47;5028724;28;20406;-79
2022/07/01 09:51:01;;;;;;;29.25;9.07;;;14.60;99.90;;;13.72;100.00;97688.53;5029199;28;20399;-79
2022/07/01 09:53:29;;;;;;;42.80;11.85;;;14.60;99.90;;;13.79;100.00;97675.78;5031069;28;20435;-80
2022/07/01 09:55:55;;;;;;;38.40;12.13;;;14.60;99.90;;;13.83;100.00;97682.19;5030790;28;20423;-79
2022/07/01 09:58:21;;;;;;;41.58;13.57;;;14.70;99.90;;;13.88;100.00;97690.97;5030580;28;20406;-80
2022/07/01 10:00:47;;;;;;;42.63;13.20;;;14.70;99.90;;;13.93;100.00;97690.97;5030652;28;20399;-79
2022/07/01 10:03:14;;;;;;;59.03;16.60;;;14.70;99.90;;;14.00;100.00;97695.22;5031133;28;20410;-79
2022/07/01 10:05:47;;;;;;;51.67;15.70;;;14.80;99.90;;;14.09;100.00;97694.44;5030584;28;20411;-79
2022/07/01 10:08:40;;;;;;;45.20;14.25;;;14.90;99.90;;;14.19;100.00;97694.44;5030401;28;20510;-79
2022/07/01 10:11:47;;;;;;;47.60;14.43;;;14.90;99.90;;;14.31;100.00;97700.28;5031527;28;20399;-77
2022/07/01 10:14:14;;;;;;;47.23;14.90;;;15.10;99.90;;;14.46;100.00;97707.50;5033273;28;20403;-77
2022/07/01 10:16:40;;;;;;;49.67;15.63;;;15.20;99.90;;;14.57;100.00;97706.44;5013605;28;20415;-78
2022/07/01 10:19:26;;;;;;;47.08;15.70;;;15.30;99.90;;;14.66;100.00;97699.47;5014207;28;20832;-78